Time;durP1;ratioP1;P1;durP2;ratioP2;P2;SDS_P1;SDS_P2;PMS_P1;PMS_P2;Temp;Humidity;BMP_temperature;BMP_pressure;BME280_temperature;BME280_humidity;BME280_pressure;Samples;Min_cycle;Max_cycle;Signal;HPM_P1;HPM_P2
2022/09/29 00:01:22;;;;;;;6.32;1.13;;;;;;;8.78;100.00;99584.03;4828495;29;20094;-91
2022/09/29 00:03:49;;;;;;;3.83;1.08;;;;;;;8.75;100.00;99590.44;4815962;29;20056;-90
2022/09/29 00:06:17;;;;;;;4.45;0.77;;;;;;;8.75;100.00;99592.25;4814655;29;20110;-92
2022/09/29 00:08:46;;;;;;;6.03;1.15;;;;;;;8.73;100.00;99587.13;4843642;29;20044;-90
2022/09/29 00:11:16;;;;;;;4.90;0.95;;;;;;;8.75;100.00;99582.53;4805911;29;20052;-91
2022/09/29 00:13:46;;;;;;;2.90;0.88;;;;;;;8.73;100.00;99584.50;4819523;29;20381;-91
2022/09/29 00:16:16;;;;;;;1.92;0.63;;;;;;;8.72;100.00;99587.28;4814702;29;20046;-91
2022/09/29 00:18:46;;;;;;;3.88;0.70;;;;;;;8.70;100.00;99582.16;4828377;29;20065;-90
2022/09/29 00:21:20;;;;;;;2.45;0.82;;;;;;;8.72;100.00;99582.03;4826872;29;20079;-91
2022/09/29 00:23:50;;;;;;;6.70;1.05;;;;;;;8.75;100.00;99593.09;4805838;29;20038;-90
2022/09/29 00:26:23;;;;;;;5.10;0.80;;;;;;;8.75;100.00;99590.44;4815430;29;20038;-90
2022/09/29 00:28:56;;;;;;;2.03;0.90;;;;;;;8.75;100.00;99582.53;4819519;29;20117;-89
2022/09/29 00:31:28;;;;;;;3.45;0.95;;;;;;;8.74;100.00;99586.19;4823650;29;20034;-91
2022/09/29 00:33:58;;;;;;;1.83;0.88;;;;;;;8.74;100.00;99578.28;4833345;29;20137;-90
2022/09/29 00:36:31;;;;;;;6.95;0.80;;;;;;;8.75;100.00;99592.25;4796737;29;20385;-90
2022/09/29 00:39:01;;;;;;;5.82;0.65;;;;;;;8.74;100.00;99578.28;4820357;29;20050;-92
2022/09/29 00:41:34;;;;;;;7.93;1.58;;;;;;;8.73;100.00;99583.69;4826562;29;20046;-91
2022/09/29 00:44:26;;;;;;;3.10;0.60;;;;;;;8.75;100.00;99587.81;4825153;29;20044;-83
2022/09/29 00:47:01;;;;;;;6.38;1.42;;;;;;;8.72;100.00;99582.03;4854968;29;20033;-83
2022/09/29 00:49:37;;;;;;;3.50;0.82;;;;;;;8.73;100.00;99588.97;4822688;29;20034;-90
2022/09/29 00:52:07;;;;;;;;;;;;;;;8.65;100.00;99587.91;4832240;29;20132;-91
2022/09/29 00:54:44;;;;;;;7.63;0.80;;;;;;;8.71;100.00;99593.56;4842249;29;19971;-91
2022/09/29 00:57:16;;;;;;;5.53;1.10;;;;;;;8.69;100.00;99591.06;4811087;29;20128;-91
2022/09/29 01:00:02;;;;;;;7.30;1.17;;;;;;;8.66;100.00;99586.09;4825234;29;20050;-91
2022/09/29 01:02:36;;;;;;;5.15;0.90;;;;;;;8.65;100.00;99594.97;4843158;29;20045;-91
2022/09/29 01:05:10;;;;;;;6.65;1.35;;;;;;;8.65;100.00;99590.53;4823143;29;20034;-91
2022/09/29 01:07:39;;;;;;;6.95;0.90;;;;;;;8.65;100.00;99592.34;4834818;29;20033;-91
2022/09/29 01:10:07;;;;;;;9.07;2.22;;;;;;;8.64;100.00;99591.53;4822845;29;20376;-91
2022/09/29 01:12:35;;;;;;;4.55;0.93;;;;;;;8.62;100.00;99592.66;4824041;29;20034;-91
2022/09/29 01:15:03;;;;;;;5.07;0.70;;;;;;;8.63;100.00;99584.59;4823651;29;20403;-90
2022/09/29 01:17:31;;;;;;;1.48;0.70;;;;;;;8.61;100.00;99591.84;4809957;29;20037;-91
2022/09/29 01:20:02;;;;;;;1.95;0.63;;;;;;;8.62;100.00;99592.66;4830499;29;20087;-91
2022/09/29 01:23:02;;;;;;;6.85;0.98;;;;;;;8.61;100.00;99580.47;4823848;29;20073;-90
2022/09/29 01:25:53;;;;;;;3.65;1.35;;;;;;;8.59;100.00;99592.94;4801540;29;20037;-92
2022/09/29 01:28:48;;;;;;;1.95;0.57;;;;;;;8.59;100.00;99587.69;4801625;29;20418;-91
2022/09/29 01:31:25;;;;;;;4.22;0.68;;;;;;;8.59;100.00;99596.41;4825456;29;20141;-91
2022/09/29 01:34:02;;;;;;;5.75;0.77;;;;;;;8.60;100.00;99594.63;4834823;29;20377;-92
2022/09/29 01:36:55;;;;;;;6.75;0.75;;;;;;;8.59;100.00;99596.41;4825549;29;20045;-91
2022/09/29 01:39:36;;;;;;;8.57;0.73;;;;;;;8.60;100.00;99589.34;4827935;29;20053;-90
2022/09/29 01:42:18;;;;;;;5.22;0.82;;;;;;;8.59;100.00;99592.94;4808239;29;20046;-90
2022/09/29 01:44:52;;;;;;;2.83;0.35;;;;;;;8.56;100.00;99586.19;4838157;29;20037;-91
2022/09/29 01:47:37;;;;;;;12.30;2.50;;;;;;;8.59;100.00;99596.41;4835873;29;20052;-91
2022/09/29 01:50:29;;;;;;;3.65;0.60;;;;;;;8.58;100.00;99596.56;4794291;29;20050;-89
2022/09/29 01:53:10;;;;;;;1.77;0.60;;;;;;;8.61;100.00;99599.75;4820782;29;20069;-91
2022/09/29 01:55:47;;;;;;;4.90;0.52;;;;;;;8.58;100.00;99596.56;4820733;29;20051;-91
2022/09/29 01:58:45;;;;;;;4.72;0.75;;;;;;;8.54;100.00;99599.50;4828962;29;20045;-92
2022/09/29 02:01:18;;;;;;;5.28;0.75;;;;;;;8.53;100.00;99589.94;4816452;29;20410;-90
2022/09/29 02:04:15;;;;;;;3.28;0.77;;;;;;;8.51;100.00;99593.69;4836573;29;20445;-90
2022/09/29 02:06:54;;;;;;;3.53;0.50;;;;;;;8.53;100.00;99589.09;4840528;29;20045;-91
2022/09/29 02:09:29;;;;;;;2.90;0.73;;;;;;;8.55;100.00;99597.72;4826747;29;20049;-89
2022/09/29 02:12:00;;;;;;;2.13;0.75;;;;;;;8.52;100.00;99598.78;4835305;29;20079;-91
2022/09/29 02:14:40;;;;;;;1.13;0.50;;;;;;;8.53;100.00;99597.00;4808624;29;20038;-91
2022/09/29 02:17:18;;;;;;;1.48;0.40;;;;;;;8.54;100.00;99596.00;4827006;29;20488;-92
2022/09/29 02:19:51;;;;;;;6.40;0.60;;;;;;;8.54;100.00;99594.25;4812805;29;20042;-92
2022/09/29 02:22:21;;;;;;;1.58;0.43;;;;;;;8.55;100.00;99595.09;4842131;29;20042;-90
2022/09/29 02:24:54;;;;;;;2.25;0.50;;;;;;;8.59;100.00;99606.13;4826080;29;20049;-89
2022/09/29 02:27:28;;;;;;;3.03;0.75;;;;;;;8.59;100.00;99595.59;4814788;29;20037;-93
2022/09/29 02:29:58;;;;;;;3.05;0.60;;;;;;;8.60;100.00;99600.69;4827424;29;20495;-90
2022/09/29 02:32:26;;;;;;;1.05;0.43;;;;;;;8.60;100.00;99600.69;4832995;29;20152;-91
2022/09/29 02:34:55;;;;;;;6.38;0.60;;;;;;;8.61;100.00;99598.91;4826597;29;20038;-91
2022/09/29 02:37:32;;;;;;;1.88;0.30;;;;;;;8.61;100.00;99602.38;4814139;29;20041;-91
2022/09/29 02:40:09;;;;;;;4.13;0.55;;;;;;;8.64;100.00;99604.69;4842016;29;20520;-91
2022/09/29 02:43:01;;;;;;;1.80;0.43;;;;;;;8.64;100.00;99606.50;4828917;29;20067;-88
2022/09/29 02:45:45;;;;;;;1.98;0.50;;;;;;;8.61;100.00;99597.09;4842737;29;20061;-91
2022/09/29 02:48:32;;;;;;;4.28;0.55;;;;;;;8.60;100.00;99597.25;4811938;29;20050;-90
2022/09/29 02:51:09;;;;;;;0.90;0.35;;;;;;;8.60;100.00;99599.88;4828401;29;20049;-90
2022/09/29 02:53:40;;;;;;;5.00;0.93;;;;;;;8.55;100.00;99597.72;4827708;29;20053;-91
2022/09/29 02:56:24;;;;;;;1.60;0.60;;;;;;;8.52;100.00;99604.06;4827912;29;20050;-90
2022/09/29 02:59:01;;;;;;;1.65;0.45;;;;;;;8.47;100.00;99594.97;4826864;29;20034;-91
2022/09/29 03:01:31;;;;;;;1.92;0.50;;;;;;;8.45;100.00;99603.03;4800386;29;20073;-92
2022/09/29 03:03:59;;;;;;;3.17;0.50;;;;;;;8.43;100.00;99600.53;4813997;29;20559;-90
2022/09/29 03:06:27;;;;;;;5.90;0.40;;;;;;;8.44;100.00;99601.38;4828539;29;20058;-90
2022/09/29 03:08:55;;;;;;;2.92;0.45;;;;;;;8.44;100.00;99596.13;4838890;29;20487;-88
2022/09/29 03:11:24;;;;;;;0.98;0.30;;;;;;;8.45;100.00;99600.41;4844589;29;20038;-90
2022/09/29 03:13:51;;;;;;;1.88;0.45;;;;;;;8.44;100.00;99589.03;4813258;29;20527;-91
2022/09/29 03:16:20;;;;;;;2.17;0.50;;;;;;;8.46;100.00;99598.59;4812733;29;20518;-90
2022/09/29 03:18:48;;;;;;;2.45;0.40;;;;;;;8.46;100.00;99599.41;4816798;29;20041;-91
2022/09/29 03:21:18;;;;;;;1.08;0.47;;;;;;;8.48;100.00;99601.88;4840104;29;20043;-91
2022/09/29 03:23:46;;;;;;;5.45;0.50;;;;;;;8.48;100.00;99608.00;4823646;29;20074;-92
2022/09/29 03:26:14;;;;;;;6.13;0.68;;;;;;;8.50;100.00;99611.31;4826772;29;20038;-91
2022/09/29 03:28:44;;;;;;;4.63;0.40;;;;;;;8.52;100.00;99611.16;4819736;29;20044;-91
2022/09/29 03:31:14;;;;;;;4.82;0.50;;;;;;;8.49;100.00;99612.28;4843062;29;20037;-91
2022/09/29 03:33:43;;;;;;;2.38;0.50;;;;;;;8.50;100.00;99613.94;4813170;29;20094;-92
2022/09/29 03:36:13;;;;;;;1.52;0.50;;;;;;;8.51;100.00;99617.38;4791440;29;20463;-91
2022/09/29 03:38:44;;;;;;;3.30;0.60;;;;;;;8.53;100.00;99612.81;4794846;29;20046;-91
2022/09/29 03:41:14;;;;;;;2.70;0.65;;;;;;;8.52;100.00;99608.53;4827356;29;20049;-92
2022/09/29 03:43:43;;;;;;;1.75;0.40;;;;;;;8.54;100.00;99617.94;4809452;29;20495;-92
2022/09/29 03:46:11;;;;;;;2.25;0.50;;;;;;;8.54;100.00;99617.09;4812270;29;20041;-92
2022/09/29 03:48:40;;;;;;;1.02;0.30;;;;;;;8.57;100.00;99619.44;4855771;29;20075;-90
2022/09/29 03:51:09;;;;;;;0.32;0.20;;;;;;;8.56;100.00;99623.06;4812350;29;20067;-90
2022/09/29 03:53:36;;;;;;;2.33;0.40;;;;;;;8.58;100.00;99615.00;4799130;29;20138;-90
2022/09/29 03:56:04;;;;;;;5.32;0.70;;;;;;;8.56;100.00;99616.00;4841952;29;20030;-91
2022/09/29 03:58:34;;;;;;;3.58;0.50;;;;;;;8.61;100.00;99619.97;4812247;29;20041;-90
2022/09/29 04:01:03;;;;;;;3.42;0.82;;;;;;;8.60;100.00;99627.03;4825843;29;20550;-91
2022/09/29 04:03:31;;;;;;;2.80;0.45;;;;;;;8.61;100.00;99612.06;4825447;29;20171;-91
2022/09/29 04:05:59;;;;;;;4.85;0.40;;;;;;;8.61;100.00;99618.19;4833546;29;20034;-91
2022/09/29 04:08:26;;;;;;;2.40;0.40;;;;;;;8.62;100.00;99613.72;4798640;29;20112;-90
2022/09/29 04:10:55;;;;;;;1.73;0.55;;;;;;;8.65;100.00;99619.50;4823402;29;20042;-90
2022/09/29 04:13:23;;;;;;;1.20;0.30;;;;;;;8.67;100.00;99627.25;4807352;29;20036;-91
2022/09/29 04:15:50;;;;;;;1.02;0.30;;;;;;;8.69;100.00;99620.84;4827694;29;20066;-91
2022/09/29 04:18:18;;;;;;;3.67;0.32;;;;;;;8.68;100.00;99624.47;4802033;29;20131;-90
2022/09/29 04:20:46;;;;;;;3.60;1.30;;;;;;;8.69;100.00;99626.13;4842637;29;20042;-91
2022/09/29 04:23:14;;;;;;;1.80;0.30;;;;;;;8.68;100.00;99623.63;4842203;29;20046;-92
2022/09/29 04:25:44;;;;;;;2.28;0.30;;;;;;;8.69;100.00;99631.41;4811618;29;20053;-91
2022/09/29 04:28:13;;;;;;;3.80;0.40;;;;;;;8.68;100.00;99640.28;4811337;29;20034;-92
2022/09/29 04:30:40;;;;;;;0.82;0.17;;;;;;;8.67;100.00;99646.53;4829636;29;20030;-92
2022/09/29 04:33:09;;;;;;;1.20;0.30;;;;;;;8.68;100.00;99652.63;4832478;29;20046;-92
2022/09/29 04:35:36;;;;;;;3.10;0.40;;;;;;;8.68;100.00;99657.88;4805435;29;20052;-90
2022/09/29 04:38:04;;;;;;;1.00;0.30;;;;;;;8.66;100.00;99654.59;4840769;29;20504;-91
2022/09/29 04:40:34;;;;;;;5.90;0.40;;;;;;;8.66;100.00;99651.97;4825500;29;20399;-91
2022/09/29 04:43:03;;;;;;;2.47;0.20;;;;;;;8.63;100.00;99653.06;4810098;29;20102;-92
2022/09/29 04:45:31;;;;;;;2.33;0.25;;;;;;;8.62;100.00;99654.06;4796404;29;20046;-92
2022/09/29 04:47:58;;;;;;;1.60;0.30;;;;;;;8.61;100.00;99660.31;4826846;29;20034;-91
2022/09/29 04:50:26;;;;;;;2.15;0.28;;;;;;;8.60;100.00;99663.91;4809390;29;20050;-92
2022/09/29 04:52:54;;;;;;;2.40;0.30;;;;;;;8.59;100.00;99667.53;4817589;29;20042;-92
2022/09/29 04:55:23;;;;;;;0.70;0.17;;;;;;;8.59;100.00;99664.06;4823518;29;20605;-92
2022/09/29 04:57:50;;;;;;;1.67;0.20;;;;;;;8.59;100.00;99656.16;4825971;29;20506;-92
2022/09/29 05:00:20;;;;;;;0.32;0.20;;;;;;;8.61;100.00;99667.38;4822870;29;20042;-91
2022/09/29 05:02:48;;;;;;;2.80;0.40;;;;;;;8.58;100.00;99662.44;4826113;29;20574;-91
2022/09/29 05:05:15;;;;;;;0.45;0.20;;;;;;;8.59;100.00;99670.19;4826750;29;20044;-90
2022/09/29 05:07:44;;;;;;;1.65;0.20;;;;;;;8.58;100.00;99667.69;4833841;29;20038;-91
2022/09/29 05:10:14;;;;;;;0.52;0.20;;;;;;;8.56;100.00;99666.06;4834875;29;20444;-91
2022/09/29 05:12:50;;;;;;;0.95;0.20;;;;;;;8.58;100.00;99671.16;4841450;29;20484;-91
2022/09/29 05:15:20;;;;;;;0.65;0.10;;;;;;;8.56;100.00;99667.84;4797775;29;20041;-91
2022/09/29 05:17:50;;;;;;;1.95;0.30;;;;;;;8.54;100.00;99675.91;4832352;29;20282;-92
2022/09/29 05:20:20;;;;;;;2.65;0.30;;;;;;;8.53;100.00;99674.22;4825074;29;20038;-92
2022/09/29 05:22:49;;;;;;;1.95;0.35;;;;;;;8.54;100.00;99672.41;4816044;29;20122;-91
2022/09/29 05:25:19;;;;;;;1.67;0.30;;;;;;;8.53;100.00;99676.00;4828833;29;20075;-90
2022/09/29 05:27:48;;;;;;;2.50;0.20;;;;;;;8.53;100.00;99682.13;4822620;29;20031;-90
2022/09/29 05:30:16;;;;;;;0.77;0.28;;;;;;;8.53;100.00;99678.66;4808332;29;20061;-91
2022/09/29 05:32:46;;;;;;;3.03;0.30;;;;;;;8.52;100.00;99680.44;4825278;29;20518;-89
2022/09/29 05:35:14;;;;;;;1.27;0.30;;;;;;;8.53;100.00;99684.75;4827401;29;20050;-90
2022/09/29 05:37:42;;;;;;;2.15;0.60;;;;;;;8.52;100.00;99679.63;4793659;29;20049;-93
2022/09/29 05:40:10;;;;;;;2.85;0.57;;;;;;;8.53;100.00;99674.22;4825365;29;20046;-92
2022/09/29 05:42:39;;;;;;;2.55;0.30;;;;;;;8.54;100.00;99683.81;4809339;29;20038;-92
2022/09/29 05:45:09;;;;;;;8.10;0.68;;;;;;;8.53;100.00;99676.00;4824797;29;20050;-91
2022/09/29 05:47:44;;;;;;;2.03;0.50;;;;;;;8.53;100.00;99678.66;4830795;29;20034;-92
2022/09/29 05:50:12;;;;;;;3.40;0.22;;;;;;;8.53;100.00;99674.22;4834965;29;20099;-91
2022/09/29 05:52:41;;;;;;;1.90;0.30;;;;;;;8.53;100.00;99668.13;4813276;29;20567;-92
2022/09/29 05:55:09;;;;;;;5.22;0.70;;;;;;;8.53;100.00;99671.59;4840760;29;20124;-90
2022/09/29 05:57:37;;;;;;;2.08;0.30;;;;;;;8.51;100.00;99672.69;4800806;29;20137;-91
2022/09/29 06:00:07;;;;;;;2.60;0.30;;;;;;;8.50;100.00;99669.25;4811035;29;20045;-91
2022/09/29 06:02:39;;;;;;;3.20;0.50;;;;;;;8.48;100.00;99687.00;4827086;29;20044;-92
2022/09/29 06:05:07;;;;;;;0.93;0.10;;;;;;;8.49;100.00;99685.22;4809050;29;20076;-91
2022/09/29 06:07:35;;;;;;;3.97;0.30;;;;;;;8.49;100.00;99691.28;4824906;29;20057;-92
2022/09/29 06:10:04;;;;;;;2.75;0.30;;;;;;;8.45;100.00;99692.56;4821452;29;20086;-92
2022/09/29 06:12:36;;;;;;;1.13;0.20;;;;;;;8.46;100.00;99694.22;4851023;29;20042;-92
2022/09/29 06:15:05;;;;;;;1.15;0.40;;;;;;;8.44;100.00;99701.47;4837444;29;20034;-92
2022/09/29 06:17:35;;;;;;;0.08;0.00;;;;;;;8.41;100.00;99701.72;4823176;29;20035;-91
2022/09/29 06:20:06;;;;;;;1.17;0.20;;;;;;;8.38;100.00;99694.97;4830706;29;20086;-91
2022/09/29 06:22:36;;;;;;;1.77;0.08;;;;;;;8.36;100.00;99704.00;4826264;29;20038;-93
2022/09/29 06:25:05;;;;;;;0.60;0.30;;;;;;;8.36;100.00;99702.16;4811277;29;20037;-92
2022/09/29 06:27:33;;;;;;;1.95;0.47;;;;;;;8.35;100.00;99710.22;4827272;29;20041;-92
2022/09/29 06:30:01;;;;;;;3.08;0.50;;;;;;;8.37;100.00;99716.19;4825838;29;20145;-90
2022/09/29 06:32:29;;;;;;;2.30;0.40;;;;;;;8.36;100.00;99711.91;4817579;29;20043;-92
2022/09/29 06:37:56;;;;;;;1.02;0.17;;;;;;;8.36;100.00;99714.53;4792973;29;20056;-92
2022/09/29 06:40:26;;;;;;;2.20;0.38;;;;;;;8.37;100.00;99710.91;4798342;29;20124;-91
2022/09/29 06:42:53;;;;;;;0.85;0.28;;;;;;;8.37;100.00;99716.19;4791734;29;20042;-92
2022/09/29 06:45:21;;;;;;;1.40;0.20;;;;;;;8.40;100.00;99715.88;4793823;29;20049;-93
2022/09/29 06:47:49;;;;;;;1.33;0.32;;;;;;;8.42;100.00;99724.47;4827533;29;20106;-92
2022/09/29 06:50:18;;;;;;;3.78;0.30;;;;;;;8.47;100.00;99731.94;4839853;29;20038;-92
2022/09/29 06:52:49;;;;;;;2.28;0.40;;;;;;;8.49;100.00;99736.06;4820200;29;20115;-93
2022/09/29 06:55:16;;;;;;;0.32;0.10;;;;;;;8.50;100.00;99734.25;4807052;29;20634;-92
2022/09/29 06:57:46;;;;;;;1.92;0.30;;;;;;;8.60;100.00;99739.50;4821877;29;20073;-92
2022/09/29 07:00:15;;;;;;;1.13;0.10;;;;;;;8.63;100.00;99747.91;4843182;29;20046;-92
2022/09/29 07:02:45;;;;;;;1.10;0.22;;;;;;;8.66;100.00;99746.81;4813767;29;20069;-92
2022/09/29 07:05:15;;;;;;;3.50;0.25;;;;;;;8.67;100.00;99744.03;4816512;29;20137;-92
2022/09/29 07:07:43;;;;;;;0.85;0.20;;;;;;;8.68;100.00;99758.00;4825232;29;20030;-92
2022/09/29 07:10:10;;;;;;;3.25;0.30;;;;;;;8.72;100.00;99753.28;4802843;29;20042;-91
2022/09/29 07:12:38;;;;;;;3.80;0.20;;;;;;;8.72;100.00;99756.75;4841801;29;20055;-92
2022/09/29 07:15:07;;;;;;;2.05;0.57;;;;;;;8.77;100.00;99761.56;4813297;29;20042;-92
2022/09/29 07:17:34;;;;;;;0.73;0.20;;;;;;;8.80;100.00;99761.28;4795847;29;20115;-92
2022/09/29 07:20:02;;;;;;;0.82;0.13;;;;;;;8.81;100.00;99766.38;4837677;29;20432;-93
2022/09/29 07:22:30;;;;;;;1.73;0.30;;;;;;;8.84;100.00;99762.63;4822130;29;20050;-93
2022/09/29 07:24:59;;;;;;;0.88;0.15;;;;;;;8.87;100.00;99777.31;4822890;29;20045;-93
2022/09/29 07:27:27;;;;;;;1.80;0.38;;;;;;;8.90;100.00;99771.75;4828131;29;20034;-91
2022/09/29 07:29:55;;;;;;;3.60;0.20;;;;;;;8.92;100.00;99775.88;4828323;29;20069;-91
2022/09/29 07:32:24;;;;;;;2.50;0.30;;;;;;;8.97;100.00;99770.16;4849341;29;20037;-90
2022/09/29 07:34:51;;;;;;;2.40;0.40;;;;;;;9.00;100.00;99772.50;4844042;29;20037;-90
2022/09/29 07:37:19;;;;;;;0.25;0.20;;;;;;;9.02;100.00;99789.00;4812373;29;20129;-91
2022/09/29 07:39:47;;;;;;;1.70;0.30;;;;;;;9.06;100.00;99784.25;4809883;29;20054;-92
2022/09/29 07:42:16;;;;;;;1.85;0.45;;;;;;;9.12;100.00;99791.56;4843954;29;20042;-92
2022/09/29 07:44:54;;;;;;;1.27;0.20;;;;;;;9.21;100.00;99799.53;4826763;29;20079;-92
2022/09/29 07:47:23;;;;;;;0.35;0.22;;;;;;;9.23;100.00;99790.50;4820220;29;20395;-92
2022/09/29 07:49:50;;;;;;;1.52;0.40;;;;;;;9.27;100.00;99797.13;4797499;29;20038;-93
2022/09/29 07:52:18;;;;;;;0.93;0.20;;;;;;;9.27;100.00;99791.84;4812870;29;20037;-92
2022/09/29 07:54:46;;;;;;;3.55;0.43;;;;;;;9.32;100.00;99794.00;4811995;29;20436;-92
2022/09/29 07:57:15;;;;;;;1.85;0.65;;;;;;;9.37;100.00;99798.84;4818951;29;20517;-91
2022/09/29 07:59:45;;;;;;;1.00;0.20;;;;;;;9.42;100.00;99805.31;4822211;29;20050;-93
2022/09/29 08:02:14;;;;;;;0.68;0.20;;;;;;;9.48;100.00;99795.13;4825122;29;20046;-93
2022/09/29 08:04:42;;;;;;;0.85;0.30;;;;;;;9.53;100.00;99800.78;4810991;29;20045;-91
2022/09/29 08:07:10;;;;;;;0.88;0.30;;;;;;;9.57;100.00;99793.38;4820975;29;20042;-91
2022/09/29 08:09:38;;;;;;;5.55;0.40;;;;;;;9.61;100.00;99798.19;4825721;29;21010;-92
2022/09/29 08:12:06;;;;;;;0.40;0.20;;;;;;;9.65;100.00;99812.72;4831584;29;20496;-92
2022/09/29 08:14:34;;;;;;;1.45;0.10;;;;;;;9.65;100.00;99814.56;4815419;29;20045;-92
2022/09/29 08:17:03;;;;;;;3.25;0.40;;;;;;;9.64;100.00;99818.16;4827264;29;20042;-92
2022/09/29 08:19:31;;;;;;;1.90;0.30;;;;;;;9.65;100.00;99818.00;4824451;29;20073;-91
2022/09/29 08:21:59;;;;;;;3.00;0.40;;;;;;;9.70;100.00;99814.09;4807239;29;20083;-92
2022/09/29 08:24:27;;;;;;;1.13;0.20;;;;;;;9.72;100.00;99820.03;4804500;29;20524;-92
2022/09/29 08:26:56;;;;;;;0.73;0.30;;;;;;;9.75;100.00;99825.00;4811185;29;20057;-91
2022/09/29 08:29:23;;;;;;;0.88;0.30;;;;;;;9.80;100.00;99828.84;4812694;29;20369;-93
2022/09/29 08:31:55;;;;;;;2.60;0.60;;;;;;;9.82;100.00;99839.25;4827614;29;20038;-92
2022/09/29 08:34:25;;;;;;;1.77;0.55;;;;;;;9.89;100.00;99842.13;4841849;29;20046;-92
2022/09/29 08:36:55;;;;;;;2.58;0.60;;;;;;;9.91;100.00;99842.75;4812047;29;20042;-92
2022/09/29 08:39:24;;;;;;;2.10;0.70;;;;;;;9.93;100.00;99841.66;4838539;29;20415;-92
2022/09/29 08:42:11;;;;;;;1.38;0.32;;;;;;;9.96;100.00;99850.22;4825532;29;20048;-91
2022/09/29 08:44:50;;;;;;;2.25;0.57;;;;;;;9.95;100.00;99849.41;4826288;29;20061;-93
2022/09/29 08:47:39;;;;;;;0.80;0.50;;;;;;;9.92;100.00;99850.53;4840948;29;20049;-93
2022/09/29 08:50:32;;;;;;;1.30;0.50;;;;;;;9.91;100.00;99850.69;4835475;29;20095;-92
2022/09/29 08:53:08;;;;;;;1.98;0.60;;;;;;;9.90;100.00;99859.59;4795724;29;20042;-91
2022/09/29 08:55:39;;;;;;;4.20;0.60;;;;;;;9.89;100.00;99861.41;4827495;29;20114;-91
2022/09/29 08:58:13;;;;;;;6.47;0.65;;;;;;;9.92;100.00;99861.09;4840026;29;20041;-93
2022/09/29 09:01:12;;;;;;;0.98;0.60;;;;;;;9.95;100.00;99867.06;4809836;29;20038;-92
2022/09/29 09:04:12;;;;;;;2.10;0.70;;;;;;;9.99;100.00;99861.31;4814029;29;20050;-93
2022/09/29 09:06:53;;;;;;;2.17;0.25;;;;;;;10.01;100.00;99859.34;4816097;29;20432;-93
2022/09/29 09:09:40;;;;;;;2.25;0.63;;;;;;;10.08;100.00;99869.28;4829597;29;20046;-93
2022/09/29 09:12:26;;;;;;;0.50;0.30;;;;;;;10.16;100.00;99866.69;4819616;29;20052;-92
2022/09/29 09:15:15;;;;;;;2.70;0.40;;;;;;;10.26;100.00;99861.28;4816164;29;20050;-92
2022/09/29 09:18:10;;;;;;;2.55;0.60;;;;;;;10.34;100.00;99863.16;4832395;29;20069;-93
2022/09/29 09:20:52;;;;;;;2.05;0.70;;;;;;;10.42;100.00;99871.13;4802833;29;20040;-93
2022/09/29 09:23:27;;;;;;;2.80;0.60;;;;;;;10.49;100.00;99874.00;4802864;29;20061;-92
2022/09/29 09:26:00;;;;;;;1.40;0.30;;;;;;;10.57;100.00;99887.25;4827505;29;20150;-92
2022/09/29 09:28:37;;;;;;;1.67;0.45;;;;;;;10.66;100.00;99886.31;4811857;29;20029;-91
2022/09/29 09:31:14;;;;;;;1.95;0.30;;;;;;;10.70;100.00;99894.75;4812874;29;20031;-92
2022/09/29 09:34:04;;;;;;;1.38;0.40;;;;;;;10.73;100.00;99889.16;4827823;29;20038;-92
2022/09/29 09:36:37;;;;;;;3.25;0.70;;;;;;;10.81;100.00;99888.34;4809508;29;20058;-93
2022/09/29 09:39:19;;;;;;;1.95;0.60;;;;;;;10.88;100.00;99885.88;4824142;29;20049;-92
2022/09/29 09:41:55;;;;;;;1.95;0.63;;;;;;;11.01;100.00;99888.06;4827582;29;20049;-93
2022/09/29 09:44:40;;;;;;;1.85;0.40;;;;;;;11.12;100.00;99881.63;4798437;29;20041;-92
2022/09/29 09:47:25;;;;;;;1.13;0.40;;;;;;;11.19;100.00;99881.81;4824551;29;20098;-92
2022/09/29 09:50:23;;;;;;;3.45;0.40;;;;;;;11.25;100.00;99882.00;4811511;29;20520;-92
2022/09/29 09:53:03;;;;;;;0.85;0.32;;;;;;;11.34;100.00;99889.97;4840687;29;20046;-92
2022/09/29 09:55:40;;;;;;;1.95;0.45;;;;;;;11.33;100.00;99883.00;4839660;29;20144;-93
2022/09/29 09:58:23;;;;;;;;;;;;;;;11.23;99.58;99885.78;4822821;29;20609;-92
2022/09/29 10:01:03;;;;;;;1.88;0.50;;;;;;;11.37;100.00;99884.34;4810558;29;20031;-92
2022/09/29 10:03:33;;;;;;;3.65;0.70;;;;;;;11.46;100.00;99890.47;4825186;29;20041;-92
2022/09/29 10:06:08;;;;;;;3.60;0.60;;;;;;;11.52;100.00;99889.81;4822665;29;20038;-93
2022/09/29 10:08:41;;;;;;;1.67;0.73;;;;;;;11.59;100.00;99887.34;4825421;29;20431;-92
2022/09/29 10:11:24;;;;;;;1.17;0.70;;;;;;;11.63;100.00;99886.00;4840705;29;20034;-92
2022/09/29 10:14:25;;;;;;;5.07;0.70;;;;;;;11.64;99.86;99888.47;4823953;29;20053;-93
2022/09/29 10:16:59;;;;;;;1.13;0.65;;;;;;;11.73;100.00;99891.97;4808104;29;20046;-91
2022/09/29 10:19:56;;;;;;;4.22;0.80;;;;;;;11.81;99.96;99882.38;4840379;29;20455;-92
2022/09/29 10:22:28;;;;;;;1.80;0.73;;;;;;;11.91;100.00;99885.69;4823439;29;20069;-92
2022/09/29 10:25:19;;;;;;;1.63;0.60;;;;;;;11.94;97.96;99892.47;4797567;29;20099;-93
2022/09/29 10:27:56;;;;;;;2.65;0.90;;;;;;;12.00;99.41;99895.28;4823220;29;20394;-92
2022/09/29 10:30:34;;;;;;;2.50;0.70;;;;;;;12.09;99.69;99892.66;4826503;29;20041;-92
2022/09/29 10:33:06;;;;;;;1.73;0.77;;;;;;;12.23;100.00;99899.88;4830281;29;20048;-93
2022/09/29 10:35:37;;;;;;;2.95;0.60;;;;;;;12.28;99.56;99889.63;4812057;29;20041;-92
2022/09/29 10:38:27;;;;;;;1.17;0.52;;;;;;;12.33;98.87;99886.44;4844552;29;20483;-92
2022/09/29 10:41:02;;;;;;;3.35;0.77;;;;;;;12.32;98.40;99889.28;4825720;29;20487;-91
2022/09/29 10:43:43;;;;;;;2.72;0.65;;;;;;;12.27;98.22;99887.97;4827992;29;20094;-92
2022/09/29 10:46:48;;;;;;;2.20;0.80;;;;;;;12.24;97.92;99892.78;4844188;29;20042;-92
2022/09/29 10:49:21;;;;;;;1.88;0.65;;;;;;;12.28;98.38;99889.63;4827020;29;20050;-91
2022/09/29 10:51:57;;;;;;;2.00;0.70;;;;;;;12.45;98.87;99891.41;4817030;29;20106;-93
2022/09/29 10:54:30;;;;;;;2.50;0.75;;;;;;;12.54;96.62;99893.03;4828483;29;20065;-92
2022/09/29 10:57:11;;;;;;;3.83;0.60;;;;;;;12.57;95.94;99884.72;4828740;29;20042;-92
2022/09/29 10:59:53;;;;;;;3.55;0.70;;;;;;;12.70;95.32;99893.94;4828644;29;20045;-90
2022/09/29 11:02:30;;;;;;;3.15;0.82;;;;;;;12.83;95.81;99880.16;4828065;29;20041;-91
2022/09/29 11:05:05;;;;;;;1.85;0.80;;;;;;;13.02;95.30;99881.53;4826397;29;20046;-91
2022/09/29 11:07:44;;;;;;;2.00;0.85;;;;;;;13.18;95.78;99891.25;4836931;29;20042;-91
2022/09/29 11:10:35;;;;;;;2.90;0.80;;;;;;;13.13;92.97;99885.63;4807150;29;20042;-91
2022/09/29 11:13:40;;;;;;;2.03;0.73;;;;;;;13.12;93.50;99900.72;4804893;29;20038;-93
2022/09/29 11:16:19;;;;;;;1.90;0.70;;;;;;;13.15;93.66;99895.06;4809267;29;20049;-91
2022/09/29 11:18:52;;;;;;;2.72;0.80;;;;;;;13.22;93.89;99889.06;4810045;29;20042;-92
2022/09/29 11:21:20;;;;;;;2.47;0.80;;;;;;;13.35;94.43;99880.50;4811157;29;20042;-91
2022/09/29 11:24:01;;;;;;;1.83;0.82;;;;;;;13.51;93.77;99875.13;4837537;29;20042;-91
2022/09/29 11:26:35;;;;;;;2.08;0.77;;;;;;;13.63;92.87;99870.19;4826067;29;20573;-91
2022/09/29 11:29:35;;;;;;;2.42;0.70;;;;;;;13.75;91.58;99880.41;4828077;29;20037;-91
2022/09/29 11:32:13;;;;;;;2.83;0.88;;;;;;;13.79;91.14;99878.22;4828734;29;20046;-91
2022/09/29 11:35:07;;;;;;;4.32;1.00;;;;;;;13.81;91.08;99878.88;4806934;29;20511;-90
2022/09/29 11:37:42;;;;;;;4.78;1.10;;;;;;;13.80;90.66;99878.03;4845105;29;20415;-91
2022/09/29 11:40:18;;;;;;;2.38;0.90;;;;;;;13.65;89.25;99877.97;4827549;29;20054;-92
2022/09/29 11:43:15;;;;;;;1.83;0.93;;;;;;;13.54;90.10;99886.41;4856525;29;20129;-90
2022/09/29 11:45:50;;;;;;;2.53;0.70;;;;;;;13.50;90.68;99888.53;4811103;29;20054;-91
2022/09/29 11:48:44;;;;;;;1.73;0.63;;;;;;;13.40;90.01;99892.25;4812462;29;20126;-91
2022/09/29 11:51:13;;;;;;;1.30;0.88;;;;;;;13.47;90.82;99889.69;4803049;29;20049;-91
2022/09/29 11:54:00;;;;;;;2.42;0.73;;;;;;;13.59;89.53;99890.16;4828711;29;20552;-90
2022/09/29 11:56:50;;;;;;;4.40;1.10;;;;;;;13.73;89.60;99895.69;4841744;29;20041;-90
2022/09/29 11:59:54;;;;;;;1.90;0.70;;;;;;;13.79;89.30;99899.47;4826265;29;20026;-90
2022/09/29 12:02:32;;;;;;;1.38;0.80;;;;;;;13.68;88.56;99892.75;4838052;29;20050;-92
2022/09/29 12:05:23;;;;;;;2.22;1.10;;;;;;;13.66;89.60;99900.06;4827310;29;20041;-91
2022/09/29 12:08:16;;;;;;;3.08;0.82;;;;;;;13.82;88.88;99899.09;4819309;29;20038;-86
2022/09/29 12:11:00;;;;;;;2.40;0.95;;;;;;;14.06;89.55;99902.53;4825097;29;20046;-91